sensor_id;sensor_type;location;lat;lon;timestamp;P1;durP1;ratioP1;P2;durP2;ratioP2
20486;SDS011;10402;49.012;8.370;2023-07-24T00:00:20;755.70;;;714.43;;
20486;SDS011;10402;49.012;8.370;2023-07-24T00:02:46;765.00;;;722.93;;
20486;SDS011;10402;49.012;8.370;2023-07-24T00:05:11;748.80;;;708.37;;
20486;SDS011;10402;49.012;8.370;2023-07-24T00:07:37;742.93;;;701.53;;
20486;SDS011;10402;49.012;8.370;2023-07-24T00:10:03;723.37;;;683.60;;
20486;SDS011;10402;49.012;8.370;2023-07-24T00:12:29;733.70;;;693.03;;
20486;SDS011;10402;49.012;8.370;2023-07-24T00:14:54;771.67;;;727.90;;
20486;SDS011;10402;49.012;8.370;2023-07-24T00:17:20;762.40;;;720.70;;
20486;SDS011;10402;49.012;8.370;2023-07-24T00:19:45;826.27;;;778.27;;
20486;SDS011;10402;49.012;8.370;2023-07-24T00:22:11;815.40;;;767.13;;
20486;SDS011;10402;49.012;8.370;2023-07-24T00:24:37;770.70;;;726.80;;
20486;SDS011;10402;49.012;8.370;2023-07-24T00:27:02;833.37;;;781.27;;
20486;SDS011;10402;49.012;8.370;2023-07-24T00:29:28;825.17;;;773.53;;
20486;SDS011;10402;49.012;8.370;2023-07-24T00:31:54;835.90;;;783.67;;
20486;SDS011;10402;49.012;8.370;2023-07-24T00:34:19;776.27;;;728.93;;
20486;SDS011;10402;49.012;8.370;2023-07-24T00:36:45;796.53;;;747.83;;
20486;SDS011;10402;49.012;8.370;2023-07-24T00:39:10;766.10;;;720.03;;
20486;SDS011;10402;49.012;8.370;2023-07-24T00:41:36;769.37;;;723.50;;
20486;SDS011;10402;49.012;8.370;2023-07-24T00:44:02;733.27;;;690.83;;
20486;SDS011;10402;49.012;8.370;2023-07-24T00:46:27;755.60;;;711.33;;
20486;SDS011;10402;49.012;8.370;2023-07-24T00:48:57;732.40;;;690.83;;
20486;SDS011;10402;49.012;8.370;2023-07-24T00:51:24;710.13;;;670.17;;
20486;SDS011;10402;49.012;8.370;2023-07-24T00:53:51;707.73;;;668.50;;
20486;SDS011;10402;49.012;8.370;2023-07-24T00:56:17;684.60;;;647.33;;
20486;SDS011;10402;49.012;8.370;2023-07-24T00:58:42;676.53;;;641.00;;
20486;SDS011;10402;49.012;8.370;2023-07-24T01:01:08;689.37;;;653.43;;
20486;SDS011;10402;49.012;8.370;2023-07-24T01:03:35;704.17;;;667.03;;
20486;SDS011;10402;49.012;8.370;2023-07-24T01:06:01;690.77;;;655.63;;
20486;SDS011;10402;49.012;8.370;2023-07-24T01:08:27;744.80;;;707.17;;
20486;SDS011;10402;49.012;8.370;2023-07-24T01:10:53;758.33;;;718.90;;
20486;SDS011;10402;49.012;8.370;2023-07-24T01:13:24;748.80;;;707.40;;
20486;SDS011;10402;49.012;8.370;2023-07-24T01:15:59;728.60;;;689.77;;
20486;SDS011;10402;49.012;8.370;2023-07-24T01:18:28;726.03;;;688.10;;
20486;SDS011;10402;49.012;8.370;2023-07-24T01:20:56;696.47;;;660.93;;
20486;SDS011;10402;49.012;8.370;2023-07-24T01:23:38;702.30;;;665.07;;
20486;SDS011;10402;49.012;8.370;2023-07-24T01:26:15;696.27;;;658.80;;
20486;SDS011;10402;49.012;8.370;2023-07-24T01:28:41;751.50;;;709.17;;
20486;SDS011;10402;49.012;8.370;2023-07-24T01:31:07;740.70;;;698.73;;
20486;SDS011;10402;49.012;8.370;2023-07-24T01:33:32;734.83;;;693.23;;
20486;SDS011;10402;49.012;8.370;2023-07-24T01:36:00;701.27;;;661.03;;
20486;SDS011;10402;49.012;8.370;2023-07-24T01:38:28;745.57;;;703.37;;
20486;SDS011;10402;49.012;8.370;2023-07-24T01:40:56;718.83;;;677.87;;
20486;SDS011;10402;49.012;8.370;2023-07-24T01:43:22;714.77;;;674.17;;
20486;SDS011;10402;49.012;8.370;2023-07-24T01:45:51;709.13;;;669.07;;
20486;SDS011;10402;49.012;8.370;2023-07-24T01:48:16;696.40;;;657.53;;
20486;SDS011;10402;49.012;8.370;2023-07-24T01:50:42;711.03;;;670.77;;
20486;SDS011;10402;49.012;8.370;2023-07-24T01:53:07;687.80;;;649.37;;
20486;SDS011;10402;49.012;8.370;2023-07-24T01:55:34;678.67;;;641.47;;
20486;SDS011;10402;49.012;8.370;2023-07-24T01:58:00;708.33;;;668.93;;
20486;SDS011;10402;49.012;8.370;2023-07-24T02:00:25;676.97;;;640.10;;
20486;SDS011;10402;49.012;8.370;2023-07-24T02:02:51;685.97;;;648.27;;
20486;SDS011;10402;49.012;8.370;2023-07-24T02:05:16;686.67;;;649.20;;
20486;SDS011;10402;49.012;8.370;2023-07-24T02:07:42;685.23;;;648.23;;
20486;SDS011;10402;49.012;8.370;2023-07-24T02:10:08;692.33;;;654.53;;
20486;SDS011;10402;49.012;8.370;2023-07-24T02:12:33;691.80;;;653.87;;
20486;SDS011;10402;49.012;8.370;2023-07-24T02:14:59;708.57;;;670.07;;
20486;SDS011;10402;49.012;8.370;2023-07-24T02:17:25;703.20;;;665.43;;
20486;SDS011;10402;49.012;8.370;2023-07-24T02:19:50;706.03;;;668.23;;
20486;SDS011;10402;49.012;8.370;2023-07-24T02:22:16;706.57;;;668.37;;
20486;SDS011;10402;49.012;8.370;2023-07-24T02:24:41;715.47;;;675.60;;
20486;SDS011;10402;49.012;8.370;2023-07-24T02:27:07;725.50;;;685.50;;
20486;SDS011;10402;49.012;8.370;2023-07-24T02:29:33;714.77;;;676.57;;
20486;SDS011;10402;49.012;8.370;2023-07-24T02:31:58;703.57;;;665.07;;
20486;SDS011;10402;49.012;8.370;2023-07-24T02:34:25;716.80;;;678.27;;
20486;SDS011;10402;49.012;8.370;2023-07-24T02:36:52;683.47;;;646.20;;
20486;SDS011;10402;49.012;8.370;2023-07-24T02:39:18;696.17;;;658.63;;
20486;SDS011;10402;49.012;8.370;2023-07-24T02:41:44;705.10;;;667.60;;
20486;SDS011;10402;49.012;8.370;2023-07-24T02:44:10;718.57;;;680.37;;
20486;SDS011;10402;49.012;8.370;2023-07-24T02:46:37;687.50;;;650.63;;
20486;SDS011;10402;49.012;8.370;2023-07-24T02:49:02;704.67;;;666.43;;
20486;SDS011;10402;49.012;8.370;2023-07-24T02:51:28;702.33;;;664.70;;
20486;SDS011;10402;49.012;8.370;2023-07-24T02:53:54;710.07;;;671.37;;
20486;SDS011;10402;49.012;8.370;2023-07-24T02:56:20;699.13;;;662.47;;
20486;SDS011;10402;49.012;8.370;2023-07-24T02:58:45;720.20;;;680.93;;
20486;SDS011;10402;49.012;8.370;2023-07-24T03:01:11;710.40;;;672.07;;
20486;SDS011;10402;49.012;8.370;2023-07-24T03:03:39;716.40;;;677.77;;
20486;SDS011;10402;49.012;8.370;2023-07-24T03:06:05;746.67;;;704.87;;
20486;SDS011;10402;49.012;8.370;2023-07-24T03:08:30;737.27;;;694.90;;
20486;SDS011;10402;49.012;8.370;2023-07-24T03:10:56;761.53;;;717.70;;
20486;SDS011;10402;49.012;8.370;2023-07-24T03:13:22;733.10;;;690.30;;
20486;SDS011;10402;49.012;8.370;2023-07-24T03:15:51;752.30;;;708.63;;
20486;SDS011;10402;49.012;8.370;2023-07-24T03:18:18;762.03;;;717.93;;
20486;SDS011;10402;49.012;8.370;2023-07-24T03:20:43;760.13;;;716.27;;
20486;SDS011;10402;49.012;8.370;2023-07-24T03:23:09;760.73;;;716.47;;
20486;SDS011;10402;49.012;8.370;2023-07-24T03:25:34;774.87;;;729.73;;
20486;SDS011;10402;49.012;8.370;2023-07-24T03:28:00;746.27;;;702.73;;
20486;SDS011;10402;49.012;8.370;2023-07-24T03:30:26;762.37;;;718.30;;
20486;SDS011;10402;49.012;8.370;2023-07-24T03:32:51;743.87;;;700.17;;
20486;SDS011;10402;49.012;8.370;2023-07-24T03:35:17;762.30;;;717.40;;
20486;SDS011;10402;49.012;8.370;2023-07-24T03:37:42;775.10;;;729.07;;
20486;SDS011;10402;49.012;8.370;2023-07-24T03:40:08;759.70;;;715.47;;
20486;SDS011;10402;49.012;8.370;2023-07-24T03:42:34;756.63;;;712.43;;
20486;SDS011;10402;49.012;8.370;2023-07-24T03:44:59;759.47;;;715.00;;
20486;SDS011;10402;49.012;8.370;2023-07-24T03:47:25;739.50;;;696.53;;
20486;SDS011;10402;49.012;8.370;2023-07-24T03:49:50;732.73;;;690.03;;
20486;SDS011;10402;49.012;8.370;2023-07-24T03:52:16;769.80;;;724.57;;
20486;SDS011;10402;49.012;8.370;2023-07-24T03:54:42;729.57;;;686.47;;
20486;SDS011;10402;49.012;8.370;2023-07-24T03:57:07;722.23;;;680.23;;
20486;SDS011;10402;49.012;8.370;2023-07-24T03:59:33;730.47;;;688.23;;
20486;SDS011;10402;49.012;8.370;2023-07-24T04:01:58;741.97;;;699.23;;
20486;SDS011;10402;49.012;8.370;2023-07-24T04:04:24;753.73;;;710.33;;
20486;SDS011;10402;49.012;8.370;2023-07-24T04:06:50;712.50;;;672.90;;
20486;SDS011;10402;49.012;8.370;2023-07-24T04:09:15;727.10;;;687.07;;
20486;SDS011;10402;49.012;8.370;2023-07-24T04:11:42;733.67;;;692.23;;
20486;SDS011;10402;49.012;8.370;2023-07-24T04:14:08;724.47;;;684.20;;
20486;SDS011;10402;49.012;8.370;2023-07-24T04:16:33;758.93;;;714.93;;
20486;SDS011;10402;49.012;8.370;2023-07-24T04:18:59;731.93;;;690.50;;
20486;SDS011;10402;49.012;8.370;2023-07-24T04:21:24;752.10;;;709.77;;
20486;SDS011;10402;49.012;8.370;2023-07-24T04:23:50;760.43;;;717.73;;
20486;SDS011;10402;49.012;8.370;2023-07-24T04:26:15;757.83;;;714.40;;
20486;SDS011;10402;49.012;8.370;2023-07-24T04:28:41;755.00;;;712.37;;
20486;SDS011;10402;49.012;8.370;2023-07-24T04:31:06;745.27;;;703.53;;
20486;SDS011;10402;49.012;8.370;2023-07-24T04:33:32;754.47;;;711.63;;
20486;SDS011;10402;49.012;8.370;2023-07-24T04:35:57;771.27;;;727.73;;
20486;SDS011;10402;49.012;8.370;2023-07-24T04:38:23;759.23;;;715.70;;
20486;SDS011;10402;49.012;8.370;2023-07-24T04:40:49;758.80;;;716.37;;
20486;SDS011;10402;49.012;8.370;2023-07-24T04:43:14;750.00;;;707.67;;
20486;SDS011;10402;49.012;8.370;2023-07-24T04:45:40;747.43;;;705.77;;
20486;SDS011;10402;49.012;8.370;2023-07-24T04:48:05;741.47;;;700.10;;
20486;SDS011;10402;49.012;8.370;2023-07-24T04:50:31;751.10;;;709.97;;
20486;SDS011;10402;49.012;8.370;2023-07-24T04:52:57;766.50;;;723.57;;
20486;SDS011;10402;49.012;8.370;2023-07-24T04:55:23;765.67;;;723.70;;
20486;SDS011;10402;49.012;8.370;2023-07-24T04:57:48;766.23;;;723.37;;
20486;SDS011;10402;49.012;8.370;2023-07-24T05:00:14;778.27;;;734.93;;
20486;SDS011;10402;49.012;8.370;2023-07-24T05:02:40;768.53;;;726.13;;
20486;SDS011;10402;49.012;8.370;2023-07-24T05:05:05;760.40;;;717.43;;
20486;SDS011;10402;49.012;8.370;2023-07-24T05:07:31;774.90;;;731.57;;
20486;SDS011;10402;49.012;8.370;2023-07-24T05:09:57;780.77;;;735.70;;
20486;SDS011;10402;49.012;8.370;2023-07-24T05:12:22;754.33;;;712.07;;
20486;SDS011;10402;49.012;8.370;2023-07-24T05:14:48;760.07;;;716.93;;
20486;SDS011;10402;49.012;8.370;2023-07-24T05:17:14;766.90;;;723.80;;
20486;SDS011;10402;49.012;8.370;2023-07-24T05:19:39;774.97;;;730.73;;
20486;SDS011;10402;49.012;8.370;2023-07-24T05:22:05;766.57;;;723.20;;
20486;SDS011;10402;49.012;8.370;2023-07-24T05:24:30;786.00;;;740.60;;
20486;SDS011;10402;49.012;8.370;2023-07-24T05:26:56;801.33;;;753.77;;
20486;SDS011;10402;49.012;8.370;2023-07-24T05:29:21;740.33;;;698.07;;
20486;SDS011;10402;49.012;8.370;2023-07-24T05:31:47;783.23;;;737.70;;
20486;SDS011;10402;49.012;8.370;2023-07-24T05:34:13;764.53;;;721.27;;
20486;SDS011;10402;49.012;8.370;2023-07-24T05:36:39;767.93;;;723.73;;
20486;SDS011;10402;49.012;8.370;2023-07-24T05:39:05;769.77;;;725.53;;
20486;SDS011;10402;49.012;8.370;2023-07-24T05:41:31;769.97;;;725.33;;
20486;SDS011;10402;49.012;8.370;2023-07-24T05:43:56;769.20;;;724.33;;
20486;SDS011;10402;49.012;8.370;2023-07-24T05:46:22;773.90;;;729.20;;
20486;SDS011;10402;49.012;8.370;2023-07-24T05:48:47;777.03;;;731.67;;
20486;SDS011;10402;49.012;8.370;2023-07-24T05:51:13;788.07;;;741.97;;
20486;SDS011;10402;49.012;8.370;2023-07-24T05:53:38;771.97;;;727.13;;
20486;SDS011;10402;49.012;8.370;2023-07-24T05:56:04;783.77;;;738.77;;
20486;SDS011;10402;49.012;8.370;2023-07-24T05:58:29;810.00;;;762.77;;
20486;SDS011;10402;49.012;8.370;2023-07-24T06:00:55;793.97;;;747.30;;
20486;SDS011;10402;49.012;8.370;2023-07-24T06:03:21;781.93;;;736.53;;
20486;SDS011;10402;49.012;8.370;2023-07-24T06:05:51;776.83;;;731.53;;
20486;SDS011;10402;49.012;8.370;2023-07-24T06:08:18;787.83;;;741.57;;
20486;SDS011;10402;49.012;8.370;2023-07-24T06:10:46;787.10;;;741.40;;
20486;SDS011;10402;49.012;8.370;2023-07-24T06:13:15;777.10;;;732.57;;
20486;SDS011;10402;49.012;8.370;2023-07-24T06:15:41;776.93;;;732.27;;
20486;SDS011;10402;49.012;8.370;2023-07-24T06:18:07;797.07;;;750.73;;
20486;SDS011;10402;49.012;8.370;2023-07-24T06:20:32;762.77;;;719.43;;
20486;SDS011;10402;49.012;8.370;2023-07-24T06:22:58;777.47;;;733.47;;
20486;SDS011;10402;49.012;8.370;2023-07-24T06:25:23;794.93;;;749.40;;
20486;SDS011;10402;49.012;8.370;2023-07-24T06:27:49;777.37;;;733.13;;
20486;SDS011;10402;49.012;8.370;2023-07-24T06:30:14;778.60;;;733.70;;
20486;SDS011;10402;49.012;8.370;2023-07-24T06:32:40;771.23;;;726.80;;
20486;SDS011;10402;49.012;8.370;2023-07-24T06:35:06;766.53;;;722.17;;
20486;SDS011;10402;49.012;8.370;2023-07-24T06:37:31;772.73;;;727.73;;
20486;SDS011;10402;49.012;8.370;2023-07-24T06:39:57;774.20;;;730.27;;
20486;SDS011;10402;49.012;8.370;2023-07-24T06:42:22;761.33;;;719.33;;
20486;SDS011;10402;49.012;8.370;2023-07-24T06:44:48;793.70;;;749.20;;
20486;SDS011;10402;49.012;8.370;2023-07-24T06:47:14;803.57;;;758.30;;
20486;SDS011;10402;49.012;8.370;2023-07-24T06:49:39;803.57;;;758.37;;
20486;SDS011;10402;49.012;8.370;2023-07-24T06:52:05;791.27;;;746.77;;
20486;SDS011;10402;49.012;8.370;2023-07-24T06:54:30;786.50;;;742.13;;
20486;SDS011;10402;49.012;8.370;2023-07-24T06:56:56;782.50;;;738.80;;
20486;SDS011;10402;49.012;8.370;2023-07-24T06:59:22;790.73;;;746.30;;
20486;SDS011;10402;49.012;8.370;2023-07-24T07:01:48;795.90;;;751.17;;
20486;SDS011;10402;49.012;8.370;2023-07-24T07:04:14;793.07;;;748.83;;
20486;SDS011;10402;49.012;8.370;2023-07-24T07:06:39;770.17;;;726.83;;
20486;SDS011;10402;49.012;8.370;2023-07-24T07:09:05;775.47;;;732.33;;
20486;SDS011;10402;49.012;8.370;2023-07-24T07:11:31;777.53;;;734.40;;
20486;SDS011;10402;49.012;8.370;2023-07-24T07:13:57;779.03;;;734.33;;
20486;SDS011;10402;49.012;8.370;2023-07-24T07:16:22;776.97;;;730.90;;
20486;SDS011;10402;49.012;8.370;2023-07-24T07:18:48;802.43;;;755.10;;
20486;SDS011;10402;49.012;8.370;2023-07-24T07:21:13;806.23;;;758.80;;
20486;SDS011;10402;49.012;8.370;2023-07-24T07:23:39;792.60;;;745.73;;
20486;SDS011;10402;49.012;8.370;2023-07-24T07:26:04;811.37;;;764.47;;
20486;SDS011;10402;49.012;8.370;2023-07-24T07:28:30;811.63;;;763.70;;
20486;SDS011;10402;49.012;8.370;2023-07-24T07:30:56;807.90;;;760.40;;
20486;SDS011;10402;49.012;8.370;2023-07-24T07:33:21;762.73;;;717.83;;
20486;SDS011;10402;49.012;8.370;2023-07-24T07:35:47;792.80;;;746.73;;
20486;SDS011;10402;49.012;8.370;2023-07-24T07:38:13;805.83;;;758.80;;
20486;SDS011;10402;49.012;8.370;2023-07-24T07:40:38;793.20;;;747.80;;
20486;SDS011;10402;49.012;8.370;2023-07-24T07:43:06;785.67;;;739.03;;
20486;SDS011;10402;49.012;8.370;2023-07-24T07:45:32;781.47;;;733.50;;
20486;SDS011;10402;49.012;8.370;2023-07-24T07:47:58;825.13;;;773.50;;
20486;SDS011;10402;49.012;8.370;2023-07-24T07:50:24;778.50;;;730.97;;
20486;SDS011;10402;49.012;8.370;2023-07-24T07:52:50;729.17;;;687.30;;
20486;SDS011;10402;49.012;8.370;2023-07-24T07:55:17;765.40;;;719.80;;
20486;SDS011;10402;49.012;8.370;2023-07-24T07:57:43;804.80;;;756.77;;
20486;SDS011;10402;49.012;8.370;2023-07-24T08:00:09;802.77;;;754.90;;
20486;SDS011;10402;49.012;8.370;2023-07-24T08:02:35;773.13;;;728.10;;
20486;SDS011;10402;49.012;8.370;2023-07-24T08:05:04;773.60;;;729.27;;
20486;SDS011;10402;49.012;8.370;2023-07-24T08:07:34;781.57;;;735.23;;
20486;SDS011;10402;49.012;8.370;2023-07-24T08:10:00;809.30;;;760.23;;
20486;SDS011;10402;49.012;8.370;2023-07-24T08:12:25;811.93;;;762.70;;
20486;SDS011;10402;49.012;8.370;2023-07-24T08:14:51;799.47;;;751.20;;
20486;SDS011;10402;49.012;8.370;2023-07-24T08:17:16;825.10;;;774.47;;
20486;SDS011;10402;49.012;8.370;2023-07-24T08:19:42;822.27;;;772.33;;
20486;SDS011;10402;49.012;8.370;2023-07-24T08:22:07;795.60;;;747.83;;
20486;SDS011;10402;49.012;8.370;2023-07-24T08:24:34;819.03;;;768.80;;
20486;SDS011;10402;49.012;8.370;2023-07-24T08:27:00;833.60;;;783.20;;
20486;SDS011;10402;49.012;8.370;2023-07-24T08:29:26;814.67;;;765.70;;
20486;SDS011;10402;49.012;8.370;2023-07-24T08:31:52;815.70;;;765.93;;
20486;SDS011;10402;49.012;8.370;2023-07-24T08:34:17;841.30;;;790.43;;
20486;SDS011;10402;49.012;8.370;2023-07-24T08:36:43;794.53;;;747.90;;
20486;SDS011;10402;49.012;8.370;2023-07-24T08:39:08;788.07;;;741.10;;
20486;SDS011;10402;49.012;8.370;2023-07-24T08:41:34;825.33;;;776.63;;
20486;SDS011;10402;49.012;8.370;2023-07-24T08:44:02;796.97;;;750.27;;
20486;SDS011;10402;49.012;8.370;2023-07-24T08:46:38;826.43;;;777.17;;
20486;SDS011;10402;49.012;8.370;2023-07-24T08:49:06;790.40;;;744.83;;
20486;SDS011;10402;49.012;8.370;2023-07-24T08:51:36;803.40;;;756.63;;
20486;SDS011;10402;49.012;8.370;2023-07-24T08:54:02;804.53;;;758.40;;
20486;SDS011;10402;49.012;8.370;2023-07-24T08:56:29;788.77;;;743.20;;
20486;SDS011;10402;49.012;8.370;2023-07-24T08:58:55;788.57;;;743.13;;
20486;SDS011;10402;49.012;8.370;2023-07-24T09:01:21;807.60;;;761.00;;
20486;SDS011;10402;49.012;8.370;2023-07-24T09:03:47;840.07;;;790.90;;
20486;SDS011;10402;49.012;8.370;2023-07-24T09:06:12;830.30;;;781.03;;
20486;SDS011;10402;49.012;8.370;2023-07-24T09:08:39;850.43;;;799.63;;
20486;SDS011;10402;49.012;8.370;2023-07-24T09:11:07;830.70;;;780.33;;
20486;SDS011;10402;49.012;8.370;2023-07-24T09:13:35;850.47;;;797.70;;
20486;SDS011;10402;49.012;8.370;2023-07-24T09:16:01;854.67;;;801.10;;
20486;SDS011;10402;49.012;8.370;2023-07-24T09:18:37;841.83;;;789.13;;
20486;SDS011;10402;49.012;8.370;2023-07-24T09:21:07;844.20;;;791.47;;
20486;SDS011;10402;49.012;8.370;2023-07-24T09:23:33;843.47;;;791.10;;
20486;SDS011;10402;49.012;8.370;2023-07-24T09:26:04;846.37;;;793.93;;
20486;SDS011;10402;49.012;8.370;2023-07-24T09:28:31;829.63;;;777.97;;
20486;SDS011;10402;49.012;8.370;2023-07-24T09:30:58;835.80;;;783.83;;
20486;SDS011;10402;49.012;8.370;2023-07-24T09:33:41;848.80;;;794.90;;
20486;SDS011;10402;49.012;8.370;2023-07-24T09:36:08;856.17;;;802.63;;
20486;SDS011;10402;49.012;8.370;2023-07-24T09:38:35;845.47;;;792.13;;
20486;SDS011;10402;49.012;8.370;2023-07-24T09:41:02;870.40;;;815.17;;
20486;SDS011;10402;49.012;8.370;2023-07-24T09:43:29;848.03;;;794.90;;
20486;SDS011;10402;49.012;8.370;2023-07-24T09:45:55;860.03;;;806.30;;
20486;SDS011;10402;49.012;8.370;2023-07-24T09:48:22;862.03;;;807.80;;
20486;SDS011;10402;49.012;8.370;2023-07-24T09:50:52;859.70;;;805.77;;
20486;SDS011;10402;49.012;8.370;2023-07-24T09:56:05;858.87;;;804.70;;
20486;SDS011;10402;49.012;8.370;2023-07-24T09:58:32;854.13;;;800.83;;
20486;SDS011;10402;49.012;8.370;2023-07-24T10:00:59;861.03;;;807.30;;
20486;SDS011;10402;49.012;8.370;2023-07-24T10:03:27;857.80;;;804.20;;
20486;SDS011;10402;49.012;8.370;2023-07-24T10:05:53;867.90;;;812.83;;
20486;SDS011;10402;49.012;8.370;2023-07-24T10:08:19;856.50;;;802.27;;
20486;SDS011;10402;49.012;8.370;2023-07-24T10:10:45;847.40;;;794.03;;
20486;SDS011;10402;49.012;8.370;2023-07-24T10:13:12;860.03;;;805.77;;
20486;SDS011;10402;49.012;8.370;2023-07-24T10:15:43;865.03;;;810.70;;
20486;SDS011;10402;49.012;8.370;2023-07-24T10:18:10;861.10;;;806.57;;
20486;SDS011;10402;49.012;8.370;2023-07-24T10:20:36;843.20;;;791.67;;
20486;SDS011;10402;49.012;8.370;2023-07-24T10:23:04;837.93;;;786.17;;
20486;SDS011;10402;49.012;8.370;2023-07-24T10:25:31;838.87;;;786.80;;
20486;SDS011;10402;49.012;8.370;2023-07-24T10:28:07;850.77;;;798.33;;
20486;SDS011;10402;49.012;8.370;2023-07-24T10:30:39;831.07;;;779.23;;
20486;SDS011;10402;49.012;8.370;2023-07-24T10:35:40;855.53;;;801.57;;
20486;SDS011;10402;49.012;8.370;2023-07-24T10:38:08;844.57;;;791.73;;
20486;SDS011;10402;49.012;8.370;2023-07-24T10:40:34;858.33;;;805.00;;
20486;SDS011;10402;49.012;8.370;2023-07-24T10:43:00;844.63;;;792.13;;
20486;SDS011;10402;49.012;8.370;2023-07-24T10:45:46;849.83;;;797.23;;
20486;SDS011;10402;49.012;8.370;2023-07-24T10:48:16;855.27;;;802.07;;
20486;SDS011;10402;49.012;8.370;2023-07-24T10:50:43;841.23;;;790.13;;
20486;SDS011;10402;49.012;8.370;2023-07-24T10:53:11;849.27;;;797.57;;
20486;SDS011;10402;49.012;8.370;2023-07-24T10:55:38;851.43;;;799.17;;
20486;SDS011;10402;49.012;8.370;2023-07-24T10:58:05;843.97;;;792.47;;
20486;SDS011;10402;49.012;8.370;2023-07-24T11:00:31;836.77;;;785.57;;
20486;SDS011;10402;49.012;8.370;2023-07-24T11:02:56;854.90;;;802.23;;
20486;SDS011;10402;49.012;8.370;2023-07-24T11:05:22;839.03;;;787.30;;
20486;SDS011;10402;49.012;8.370;2023-07-24T11:07:48;846.80;;;794.43;;
20486;SDS011;10402;49.012;8.370;2023-07-24T11:10:18;849.17;;;796.93;;
20486;SDS011;10402;49.012;8.370;2023-07-24T11:12:45;847.73;;;795.17;;
20486;SDS011;10402;49.012;8.370;2023-07-24T11:15:11;856.13;;;803.27;;
20486;SDS011;10402;49.012;8.370;2023-07-24T11:17:38;864.23;;;809.43;;
20486;SDS011;10402;49.012;8.370;2023-07-24T11:20:10;852.67;;;798.93;;
20486;SDS011;10402;49.012;8.370;2023-07-24T11:22:38;839.33;;;786.73;;
20486;SDS011;10402;49.012;8.370;2023-07-24T11:25:07;840.70;;;788.23;;
20486;SDS011;10402;49.012;8.370;2023-07-24T11:27:38;844.20;;;792.07;;
20486;SDS011;10402;49.012;8.370;2023-07-24T11:30:06;842.53;;;790.00;;
20486;SDS011;10402;49.012;8.370;2023-07-24T11:32:32;844.33;;;792.13;;
20486;SDS011;10402;49.012;8.370;2023-07-24T11:34:58;841.73;;;789.67;;
20486;SDS011;10402;49.012;8.370;2023-07-24T11:37:25;856.60;;;803.90;;
20486;SDS011;10402;49.012;8.370;2023-07-24T11:39:54;871.83;;;818.63;;
20486;SDS011;10402;49.012;8.370;2023-07-24T11:42:24;865.73;;;813.40;;
20486;SDS011;10402;49.012;8.370;2023-07-24T11:44:51;855.97;;;804.47;;
20486;SDS011;10402;49.012;8.370;2023-07-24T11:47:17;861.83;;;809.27;;
20486;SDS011;10402;49.012;8.370;2023-07-24T11:49:42;862.53;;;809.70;;
20486;SDS011;10402;49.012;8.370;2023-07-24T11:52:13;849.13;;;797.40;;
20486;SDS011;10402;49.012;8.370;2023-07-24T11:54:38;845.70;;;794.47;;
20486;SDS011;10402;49.012;8.370;2023-07-24T11:57:14;874.43;;;820.40;;
20486;SDS011;10402;49.012;8.370;2023-07-24T11:59:42;856.80;;;804.73;;
20486;SDS011;10402;49.012;8.370;2023-07-24T12:02:11;869.63;;;817.23;;
20486;SDS011;10402;49.012;8.370;2023-07-24T12:04:36;859.60;;;808.10;;
20486;SDS011;10402;49.012;8.370;2023-07-24T12:07:07;872.97;;;820.27;;
20486;SDS011;10402;49.012;8.370;2023-07-24T12:09:33;858.43;;;806.50;;
20486;SDS011;10402;49.012;8.370;2023-07-24T12:11:59;849.07;;;798.67;;
20486;SDS011;10402;49.012;8.370;2023-07-24T12:14:24;817.17;;;769.57;;
20486;SDS011;10402;49.012;8.370;2023-07-24T12:16:59;809.93;;;762.53;;
20486;SDS011;10402;49.012;8.370;2023-07-24T12:19:28;789.27;;;743.77;;
20486;SDS011;10402;49.012;8.370;2023-07-24T12:21:54;828.00;;;779.37;;
20486;SDS011;10402;49.012;8.370;2023-07-24T12:24:19;826.67;;;777.97;;
20486;SDS011;10402;49.012;8.370;2023-07-24T12:26:45;822.10;;;773.73;;
20486;SDS011;10402;49.012;8.370;2023-07-24T12:29:10;810.57;;;763.13;;
20486;SDS011;10402;49.012;8.370;2023-07-24T12:31:36;806.73;;;759.53;;
20486;SDS011;10402;49.012;8.370;2023-07-24T12:34:01;783.03;;;738.03;;
20486;SDS011;10402;49.012;8.370;2023-07-24T12:36:27;799.60;;;753.47;;
20486;SDS011;10402;49.012;8.370;2023-07-24T12:38:52;806.43;;;759.87;;
20486;SDS011;10402;49.012;8.370;2023-07-24T12:41:18;798.53;;;752.30;;
20486;SDS011;10402;49.012;8.370;2023-07-24T12:43:44;779.43;;;735.30;;
20486;SDS011;10402;49.012;8.370;2023-07-24T12:46:10;792.87;;;747.63;;
20486;SDS011;10402;49.012;8.370;2023-07-24T12:48:35;784.13;;;739.37;;
20486;SDS011;10402;49.012;8.370;2023-07-24T12:51:01;786.40;;;740.80;;
20486;SDS011;10402;49.012;8.370;2023-07-24T12:53:27;800.60;;;753.70;;
20486;SDS011;10402;49.012;8.370;2023-07-24T12:55:53;774.90;;;730.13;;
20486;SDS011;10402;49.012;8.370;2023-07-24T12:58:18;786.50;;;741.93;;
20486;SDS011;10402;49.012;8.370;2023-07-24T13:00:44;774.20;;;729.63;;
20486;SDS011;10402;49.012;8.370;2023-07-24T13:03:09;763.60;;;719.47;;
20486;SDS011;10402;49.012;8.370;2023-07-24T13:05:35;744.60;;;701.70;;
20486;SDS011;10402;49.012;8.370;2023-07-24T13:08:02;767.37;;;722.83;;
20486;SDS011;10402;49.012;8.370;2023-07-24T13:10:27;755.63;;;712.37;;
20486;SDS011;10402;49.012;8.370;2023-07-24T13:12:53;758.17;;;714.83;;
20486;SDS011;10402;49.012;8.370;2023-07-24T13:15:18;768.53;;;724.27;;
20486;SDS011;10402;49.012;8.370;2023-07-24T13:17:44;762.53;;;718.43;;
20486;SDS011;10402;49.012;8.370;2023-07-24T13:20:09;758.07;;;714.23;;
20486;SDS011;10402;49.012;8.370;2023-07-24T13:22:35;756.17;;;712.50;;
20486;SDS011;10402;49.012;8.370;2023-07-24T13:25:01;756.60;;;712.73;;
20486;SDS011;10402;49.012;8.370;2023-07-24T13:27:26;761.57;;;717.90;;
20486;SDS011;10402;49.012;8.370;2023-07-24T13:29:52;770.87;;;726.07;;
20486;SDS011;10402;49.012;8.370;2023-07-24T13:32:17;781.23;;;735.43;;
20486;SDS011;10402;49.012;8.370;2023-07-24T13:34:44;785.10;;;739.53;;
20486;SDS011;10402;49.012;8.370;2023-07-24T13:37:09;748.80;;;706.13;;
20486;SDS011;10402;49.012;8.370;2023-07-24T13:39:35;771.97;;;726.77;;
20486;SDS011;10402;49.012;8.370;2023-07-24T13:42:00;788.50;;;742.40;;
20486;SDS011;10402;49.012;8.370;2023-07-24T13:44:26;795.50;;;749.13;;
20486;SDS011;10402;49.012;8.370;2023-07-24T13:46:52;804.40;;;757.50;;
20486;SDS011;10402;49.012;8.370;2023-07-24T13:49:17;804.43;;;757.47;;
20486;SDS011;10402;49.012;8.370;2023-07-24T13:51:43;800.90;;;754.37;;
20486;SDS011;10402;49.012;8.370;2023-07-24T13:54:08;777.50;;;731.67;;
20486;SDS011;10402;49.012;8.370;2023-07-24T13:56:34;809.03;;;761.77;;